Time;durP1;ratioP1;P1;durP2;ratioP2;P2;SDS_P1;SDS_P2;PMS_P1;PMS_P2;Temp;Humidity;BMP_temperature;BMP_pressure;BME280_temperature;BME280_humidity;BME280_pressure;Samples;Min_cycle;Max_cycle;Signal;HPM_P1;HPM_P2
2021/12/23 00:04:14;;;;;;;81.03;73.50;;;;;;;5.51;100.00;101371.33;1925295;72;85786;-74
2021/12/23 00:10:08;;;;;;;78.53;71.17;;;;;;;5.50;100.00;101364.12;1929233;72;39647;-70
2021/12/23 00:16:03;;;;;;;81.00;73.60;;;;;;;5.54;100.00;101364.48;1973410;71;40379;-70
2021/12/23 00:27:49;;;;;;;79.63;72.13;;;;;;;5.55;100.00;101378.03;1982653;71;39545;-70
2021/12/23 00:33:35;;;;;;;80.03;72.67;;;;;;;5.56;100.00;101362.34;1888080;74;86972;-70
2021/12/23 00:39:20;;;;;;;80.00;72.73;;;;;;;5.48;100.00;101338.18;1864121;75;86382;-74
2021/12/23 00:45:06;;;;;;;79.07;71.87;;;;;;;5.56;100.00;101323.77;1912326;74;86717;-74
2021/12/23 00:50:51;;;;;;;80.33;72.87;;;;;;;5.62;100.00;101293.84;1975128;71;40572;-74
2021/12/23 00:56:37;;;;;;;80.27;72.97;;;;;;;5.57;100.00;101301.46;1887663;74;86270;-70
2021/12/23 01:02:28;;;;;;;78.23;71.03;;;;;;;5.68;100.00;101303.92;1882758;74;86085;-70
2021/12/23 01:08:11;;;;;;;79.47;72.37;;;;;;;5.62;100.00;101299.36;1920307;74;85722;-70
2021/12/23 01:14:02;;;;;;;77.37;70.37;;;;;;;5.63;100.00;101285.89;1983008;71;48231;-74
2021/12/23 01:19:51;;;;;;;77.23;70.03;;;;;;;5.68;100.00;101292.89;1794946;78;86508;-69
2021/12/23 01:25:36;;;;;;;77.83;70.90;;;;;;;5.60;100.00;101278.95;1877831;75;86434;-69
2021/12/23 01:31:24;;;;;;;76.43;69.53;;;;;;;5.69;100.00;101279.42;1874289;73;85232;-74
2021/12/23 01:37:09;;;;;;;77.83;71.27;;;;;;;5.77;100.00;101268.02;1917486;74;85482;-70
2021/12/23 01:42:54;;;;;;;80.17;73.07;;;;;;;5.70;100.00;101259.02;1980041;71;39735;-70
2021/12/23 01:48:40;;;;;;;77.00;69.73;;;;;;;5.80;100.00;101248.22;1947718;72;86046;-70
2021/12/23 01:54:24;;;;;;;74.30;67.40;;;;;;;5.67;100.00;101247.12;1870365;75;85308;-70
2021/12/23 02:00:12;;;;;;;78.07;70.87;;;;;;;5.69;100.00;101239.45;1906677;72;86232;-70
2021/12/23 02:05:57;;;;;;;75.77;68.50;;;;;;;5.79;100.00;101246.00;1983864;71;39657;-70
2021/12/23 02:11:40;;;;;;;76.30;69.50;;;;;;;5.82;100.00;101228.97;1970500;69;85376;-70
2021/12/23 02:17:24;;;;;;;75.40;68.53;;;;;;;5.81;100.00;101235.59;1873586;74;86316;-76
2021/12/23 02:23:10;;;;;;;80.33;73.33;;;;;;;5.90;100.00;101249.28;1910773;72;86777;-74
2021/12/23 02:28:56;;;;;;;81.10;73.57;;;;;;;5.91;100.00;101249.59;1939514;71;39552;-69
2021/12/23 02:34:40;;;;;;;75.03;68.33;;;;;;;5.90;100.00;101225.04;1841889;76;86243;-69
2021/12/23 02:40:28;;;;;;;73.33;66.93;;;;;;;5.95;100.00;101212.70;1868474;75;86883;-70
2021/12/23 02:46:14;;;;;;;74.80;68.10;;;;;;;6.02;100.00;101214.80;1908624;72;86139;-70
2021/12/23 02:51:58;;;;;;;77.13;70.17;;;;;;;5.99;100.00;101203.43;1952201;71;39549;-70
2021/12/23 02:57:42;;;;;;;76.97;70.20;;;;;;;5.90;100.00;101197.47;1794651;78;86806;-74
2021/12/23 03:03:28;;;;;;;76.00;69.20;;;;;;;6.02;100.00;101204.30;1872300;75;86563;-70
2021/12/23 03:09:13;;;;;;;76.83;69.87;;;;;;;6.07;100.00;101198.89;1951524;73;86197;-74
2021/12/23 03:14:56;;;;;;;77.80;71.00;;;;;;;6.27;100.00;101200.64;1984674;71;39488;-74
2021/12/23 03:20:40;;;;;;;77.67;70.67;;;;;;;6.04;100.00;101177.30;1832079;76;86539;-69
2021/12/23 03:26:25;;;;;;;74.43;68.10;;;;;;;6.12;100.00;101165.33;1906024;74;86618;-74
2021/12/23 03:32:10;;;;;;;75.90;69.37;;;;;;;6.29;100.00;101167.56;1903632;72;86293;-75
2021/12/23 03:37:54;;;;;;;75.90;69.30;;;;;;;6.06;100.00;101167.72;1985587;71;39532;-69
2021/12/23 03:43:39;;;;;;;77.20;70.10;;;;;;;6.07;100.00;101167.18;1978583;71;86638;-70
2021/12/23 03:49:23;;;;;;;78.07;71.00;;;;;;;6.10;100.00;101141.86;1869366;74;86604;-69
2021/12/23 03:55:09;;;;;;;75.17;68.37;;;;;;;6.09;100.00;101141.02;1913264;73;86183;-70
2021/12/23 04:00:53;;;;;;;75.77;69.30;;;;;;;6.15;100.00;101138.66;1984584;71;40278;-70
2021/12/23 04:06:37;;;;;;;79.73;72.67;;;;;;;6.18;100.00;101135.93;1829555;76;86642;-70
2021/12/23 04:12:21;;;;;;;75.73;69.03;;;;;;;6.17;100.00;101121.30;1867361;75;86514;-72
2021/12/23 04:18:06;;;;;;;73.73;67.17;;;;;;;6.27;100.00;101121.48;1921153;74;86114;-70
2021/12/23 04:23:52;;;;;;;73.33;66.53;;;;;;;6.35;100.00;101127.96;1985001;71;39667;-70
2021/12/23 04:29:37;;;;;;;76.43;69.60;;;;;;;6.34;100.00;101106.97;1836978;76;86865;-71
2021/12/23 04:35:23;;;;;;;74.07;67.50;;;;;;;6.38;100.00;101096.27;1873672;74;86499;-74
2021/12/23 04:41:08;;;;;;;74.97;68.17;;;;;;;6.38;100.00;101077.79;1911848;72;86415;-70
2021/12/23 04:46:52;;;;;;;74.53;67.53;;;;;;;6.50;100.00;101074.95;1926761;71;39704;-74
2021/12/23 04:52:37;;;;;;;74.97;68.10;;;;;;;6.47;100.00;101074.60;1846863;75;85582;-70
2021/12/23 04:58:24;;;;;;;73.30;66.40;;;;;;;6.53;100.00;101057.88;1897291;73;87271;-74
2021/12/23 05:04:07;;;;;;;77.60;70.13;;;;;;;6.68;100.00;101078.80;1939224;73;86596;-74
2021/12/23 05:09:51;;;;;;;79.03;71.77;;;;;;;6.63;100.00;101056.63;1948620;72;39481;-73
2021/12/23 05:15:34;;;;;;;78.17;70.97;;;;;;;6.59;100.00;101054.09;1881788;75;87049;-73
2021/12/23 05:21:18;;;;;;;76.20;68.97;;;;;;;6.64;100.00;101033.47;1881938;74;86849;-74
2021/12/23 05:27:02;;;;;;;79.70;72.27;;;;;;;6.71;100.00;101029.16;1919614;73;86392;-74
2021/12/23 05:32:47;;;;;;;75.97;69.23;;;;;;;6.82;100.00;101030.41;1812062;78;86771;-70
2021/12/23 05:38:33;;;;;;;76.03;68.50;;;;;;;6.76;100.00;101024.52;1904478;74;85774;-73
2021/12/23 05:44:17;;;;;;;78.27;70.53;;;;;;;6.73;100.00;101031.94;1932423;73;85645;-74
2021/12/23 05:50:01;;;;;;;77.27;69.50;;;;;;;6.69;100.00;101042.36;1812731;77;86434;-70
2021/12/23 05:55:45;;;;;;;78.97;71.93;;;;;;;6.76;100.00;101027.86;1831269;76;86379;-70
2021/12/23 06:01:29;;;;;;;73.00;66.30;;;;;;;6.73;100.00;101015.92;1829519;77;86564;-74
2021/12/23 06:07:14;;;;;;;75.20;68.00;;;;;;;6.78;100.00;101029.80;1919219;73;86298;-74
2021/12/23 06:12:57;;;;;;;73.30;66.50;;;;;;;6.85;100.00;101026.30;1951435;71;39654;-74
2021/12/23 06:18:41;;;;;;;77.90;70.13;;;;;;;6.97;100.00;101042.75;1961934;72;86475;-74
2021/12/23 06:24:26;;;;;;;78.43;70.87;;;;;;;7.39;100.00;101027.23;1880348;74;86589;-70
2021/12/23 06:30:15;;;;;;;77.13;69.70;;;;;;;7.61;100.00;101024.42;1909319;74;85607;-70
2021/12/23 06:36:00;;;;;;;73.93;66.40;;;;;;;7.69;100.00;101012.88;1942736;70;39572;-74
2021/12/23 06:41:44;;;;;;;76.43;68.80;;;;;;;7.84;100.00;101015.77;1837257;76;86538;-74
2021/12/23 06:47:29;;;;;;;76.03;68.20;;;;;;;7.80;100.00;100991.12;1805962;78;86123;-70
2021/12/23 06:53:16;;;;;;;77.67;70.03;;;;;;;7.81;100.00;100966.53;1855789;76;85644;-70
2021/12/23 06:59:00;;;;;;;76.27;69.40;;;;;;;7.94;100.00;100977.16;1978438;71;39583;-74
2021/12/23 07:04:45;;;;;;;75.07;67.57;;;;;;;8.09;100.00;100996.62;1831003;76;86375;-70
2021/12/23 07:10:31;;;;;;;74.83;67.70;;;;;;;8.07;100.00;100993.84;1798205;78;86987;-75
2021/12/23 07:16:16;;;;;;;74.57;67.37;;;;;;;7.97;100.00;100985.45;1931119;73;85361;-75
2021/12/23 07:22:00;;;;;;;75.97;68.53;;;;;;;7.97;100.00;100992.38;1979483;71;39757;-76
2021/12/23 07:27:45;;;;;;;74.93;67.63;;;;;;;8.01;100.00;100989.36;1837168;76;86199;-74
2021/12/23 07:33:31;;;;;;;74.93;67.53;;;;;;;8.10;100.00;100983.62;1808037;78;86353;-70
2021/12/23 07:39:15;;;;;;;74.70;66.80;;;;;;;8.12;100.00;100982.28;1907999;72;85335;-70
2021/12/23 07:45:01;;;;;;;75.67;68.37;;;;;;;8.10;100.00;100979.47;1937518;71;39455;-77
2021/12/23 07:50:45;;;;;;;75.47;68.27;;;;;;;8.14;100.00;100973.69;1833437;75;86514;-73
2021/12/23 07:56:29;;;;;;;79.37;71.63;;;;;;;8.11;100.00;100980.59;1794511;78;86345;-70
2021/12/23 08:02:13;;;;;;;80.77;73.00;;;;;;;8.12;100.00;100985.05;1901871;74;86824;-73
2021/12/23 08:07:57;;;;;;;86.40;78.33;;;;;;;8.22;100.00;101000.31;1978933;70;39619;-73
2021/12/23 08:13:40;;;;;;;85.50;77.63;;;;;;;8.22;100.00;101004.46;1825391;76;85666;-74
2021/12/23 08:19:24;;;;;;;92.10;83.63;;;;;;;8.27;100.00;101009.20;1903827;73;86615;-75
2021/12/23 08:25:10;;;;;;;90.53;82.00;;;;;;;8.31;100.00;101003.45;1899546;73;86571;-76
2021/12/23 08:30:55;;;;;;;91.90;83.53;;;;;;;8.22;100.00;100995.32;1979909;71;39564;-71
2021/12/23 08:36:39;;;;;;;87.37;79.03;;;;;;;8.33;100.00;101004.58;1827137;76;85295;-74
2021/12/23 08:42:24;;;;;;;89.73;81.90;;;;;;;8.31;100.00;100997.08;1870685;75;86594;-71
2021/12/23 08:48:08;;;;;;;92.77;84.10;;;;;;;8.37;100.00;100997.41;1911089;74;86763;-70
2021/12/23 08:53:52;;;;;;;88.20;80.07;;;;;;;8.41;100.00;101007.68;1985201;71;39620;-71
2021/12/23 08:59:37;;;;;;;92.83;84.43;;;;;;;8.35;100.00;101011.50;1823482;76;85424;-73
2021/12/23 09:05:22;;;;;;;83.30;74.73;;;;;;;8.38;100.00;101011.53;1883068;74;86255;-70
2021/12/23 09:11:05;;;;;;;88.00;79.60;;;;;;;8.47;100.00;101014.09;1911955;73;86150;-72
2021/12/23 09:16:50;;;;;;;89.77;81.67;;;;;;;8.44;100.00;101007.13;1986375;71;39821;-71
2021/12/23 09:22:34;;;;;;;85.27;76.60;;;;;;;8.50;100.00;101002.47;1875861;74;86516;-69
2021/12/23 09:28:28;;;;;;;92.37;83.30;;;;;;;8.53;100.00;100992.23;1874441;74;86434;-69
2021/12/23 09:34:11;;;;;;;87.30;78.73;;;;;;;8.69;100.00;100995.36;1909134;73;86222;-70
2021/12/23 09:39:58;;;;;;;89.47;80.83;;;;;;;8.65;100.00;100997.00;1950715;71;40574;-70
2021/12/23 09:45:46;;;;;;;94.43;84.33;;;;;;;8.62;100.00;100976.23;1838236;76;85504;-71
2021/12/23 09:51:33;;;;;;;83.47;74.47;;;;;;;8.66;100.00;100989.83;1807682;78;86926;-71
2021/12/23 09:57:19;;;;;;;80.27;71.80;;;;;;;8.83;100.00;100992.39;1871459;75;86702;-71
2021/12/23 10:03:04;;;;;;;87.80;79.60;;;;;;;8.84;100.00;100996.84;1903881;72;86352;-71
2021/12/23 10:08:49;;;;;;;81.97;73.30;;;;;;;8.79;100.00;100992.66;1974862;71;39593;-73
2021/12/23 10:33:27;;;;;;;84.47;75.30;;;;;;;9.01;100.00;101017.41;1946010;73;86492;-71
2021/12/23 10:38:59;;;;;;;84.27;75.33;;;;;;;9.04;100.00;101015.47;1976579;71;40208;-71
2021/12/23 10:44:50;;;;;;;82.53;74.07;;;;;;;9.09;100.00;101006.63;1826419;76;86167;-71
2021/12/23 10:50:51;;;;;;;87.83;78.37;;;;;;;9.10;100.00;101000.00;1986952;71;39553;-71
2021/12/23 11:02:40;;;;;;;89.90;80.63;;;;;;;9.17;100.00;100977.55;1840882;75;86223;-71
2021/12/23 11:08:32;;;;;;;86.57;77.17;;;;;;;9.25;100.00;100970.09;1884456;74;86383;-69
2021/12/23 11:39:13;;;;;;;88.63;79.87;;;;;;;9.52;100.00;100924.11;1849485;75;86293;-72
2021/12/23 11:44:56;;;;;;;89.30;80.43;;;;;;;9.51;100.00;100914.97;1927837;71;39507;-69
2021/12/23 11:50:53;;;;;;;86.83;78.40;;;;;;;9.57;100.00;100895.01;1836138;76;86486;-72
2021/12/23 11:56:28;;;;;;;78.70;70.83;;;;;;;9.68;100.00;100877.24;1900776;73;86671;-72
2021/12/23 12:02:18;;;;;;;80.40;72.60;;;;;;;9.80;100.00;100859.75;1897270;72;85403;-72
2021/12/23 12:11:19;;;;;;;83.27;75.13;;;;;;;10.06;100.00;100849.42;1929022;73;86410;-69
2021/12/23 12:13:50;;;;;;;79.63;72.23;;;;;;;10.05;100.00;100859.69;1856050;75;939030;-73
2021/12/23 12:19:56;;;;;;;78.37;70.83;;;;;;;10.17;100.00;100840.55;1943279;71;39726;-68
2021/12/23 12:26:10;;;;;;;79.43;72.67;;;;;;;10.22;100.00;100828.89;1913201;74;86633;-69
2021/12/23 12:31:56;;;;;;;81.47;74.27;;;;;;;10.33;100.00;100818.00;1937165;71;39862;-69
2021/12/23 12:37:53;;;;;;;78.67;71.73;;;;;;;10.33;100.00;100814.39;1982238;71;39734;-71
2021/12/23 12:43:58;;;;;;;80.87;73.90;;;;;;;10.42;100.00;100819.08;1978405;71;86597;-69
2021/12/23 12:50:11;;;;;;;76.87;70.13;;;;;;;10.39;100.00;100821.59;1931172;71;86096;-72
2021/12/23 12:56:00;;;;;;;79.93;72.87;;;;;;;10.47;100.00;100812.67;1984596;71;40301;-75
2021/12/23 13:01:55;;;;;;;79.33;71.70;;;;;;;10.49;100.00;100813.20;1980523;71;39581;-73
2021/12/23 13:07:41;;;;;;;75.83;69.53;;;;;;;10.52;100.00;100808.48;1845941;76;86358;-73
2021/12/23 13:13:32;;;;;;;75.87;69.17;;;;;;;10.55;100.00;100810.67;1890154;74;86649;-71
2021/12/23 13:19:20;;;;;;;72.67;66.00;;;;;;;10.58;100.00;100795.38;1943982;72;86726;-73
2021/12/23 13:25:07;;;;;;;67.03;61.37;;;;;;;10.67;100.00;100786.16;1929090;73;86373;-70
2021/12/23 13:30:55;;;;;;;70.23;64.50;;;;;;;10.75;100.00;100788.33;1928043;70;40227;-73
2021/12/23 13:36:44;;;;;;;62.97;57.67;;;;;;;10.82;100.00;100786.63;1851829;76;86459;-73
2021/12/23 13:42:29;;;;;;;60.83;56.07;;;;;;;10.87;100.00;100776.28;1807633;78;86430;-72
2021/12/23 13:48:15;;;;;;;57.60;53.30;;;;;;;10.88;100.00;100777.95;1908108;74;86409;-73
2021/12/23 13:54:09;;;;;;;57.40;53.23;;;;;;;10.90;100.00;100771.56;1918562;72;86187;-71
2021/12/23 13:59:56;;;;;;;52.77;48.97;;;;;;;10.96;100.00;100771.78;1963986;71;39625;-71
2021/12/23 14:05:43;;;;;;;55.20;51.37;;;;;;;10.99;100.00;100768.16;1889473;74;86172;-71
2021/12/23 14:11:27;;;;;;;53.07;49.20;;;;;;;10.96;100.00;100759.27;1883769;74;86775;-74
2021/12/23 14:17:25;;;;;;;54.03;50.20;;;;;;;11.01;100.00;100752.84;1943358;72;85790;-74
2021/12/23 14:23:23;;;;;;;52.60;48.90;;;;;;;11.03;100.00;100753.95;1895698;73;86480;-71
2021/12/23 14:29:14;;;;;;;54.43;50.63;;;;;;;10.99;100.00;100742.59;1929821;72;85452;-74
2021/12/23 14:35:00;;;;;;;54.43;50.73;;;;;;;11.02;100.00;100725.88;1817385;77;86142;-72
2021/12/23 14:40:44;;;;;;;53.17;49.47;;;;;;;11.06;100.00;100750.58;1825882;75;85582;-71
2021/12/23 14:46:46;;;;;;;57.63;53.70;;;;;;;11.06;100.00;100734.73;1825334;77;86786;-71
2021/12/23 14:52:48;;;;;;;58.03;53.93;;;;;;;11.11;100.00;100747.20;1838713;76;86476;-70
2021/12/23 14:58:35;;;;;;;54.37;50.67;;;;;;;11.06;100.00;100756.14;1884049;74;86317;-71
2021/12/23 15:04:20;;;;;;;57.70;53.83;;;;;;;11.14;100.00;100757.73;1870989;75;87023;-70
2021/12/23 15:10:30;;;;;;;55.10;51.10;;;;;;;11.15;100.00;100748.84;1885902;75;85804;-74
2021/12/23 15:16:15;;;;;;;57.47;53.47;;;;;;;11.16;100.00;100740.77;1913829;74;86304;-71
2021/12/23 15:22:03;;;;;;;57.00;53.00;;;;;;;11.26;100.00;100740.11;1975277;71;39441;-75
2021/12/23 15:27:48;;;;;;;58.13;54.13;;;;;;;11.30;100.00;100758.41;1944784;71;40354;-70
2021/12/23 15:33:33;;;;;;;58.83;54.63;;;;;;;11.25;100.00;100750.15;1879867;75;86695;-71
2021/12/23 15:39:21;;;;;;;58.37;54.30;;;;;;;11.21;100.00;100747.09;1885568;73;85807;-75
2021/12/23 15:45:08;;;;;;;59.70;55.10;;;;;;;11.31;100.00;100756.75;1901362;72;86652;-75
2021/12/23 15:51:00;;;;;;;60.03;55.43;;;;;;;11.27;100.00;100752.89;1979921;71;39508;-74
2021/12/23 15:56:46;;;;;;;60.30;55.80;;;;;;;11.32;100.00;100761.19;1830967;76;86388;-75
2021/12/23 16:02:32;;;;;;;58.70;54.23;;;;;;;11.41;100.00;100762.78;1807471;78;87024;-70
2021/12/23 16:08:16;;;;;;;59.40;54.50;;;;;;;11.36;100.00;100762.82;2001934;70;85511;-76
2021/12/23 16:13:59;;;;;;;63.20;58.00;;;;;;;11.39;100.00;100756.67;1984104;71;39648;-75
2021/12/23 16:19:44;;;;;;;62.83;57.27;;;;;;;11.37;100.00;100753.36;1819217;77;86363;-71
2021/12/23 16:25:28;;;;;;;62.00;57.10;;;;;;;11.39;100.00;100771.41;1836502;76;86616;-71
2021/12/23 16:31:14;;;;;;;63.17;57.73;;;;;;;11.42;100.00;100768.03;1902312;72;86171;-70
2021/12/23 16:36:58;;;;;;;62.73;57.33;;;;;;;11.43;100.00;100769.70;1980527;71;39603;-71
2021/12/23 16:42:43;;;;;;;62.90;57.20;;;;;;;11.48;100.00;100770.20;1836139;76;86852;-70
2021/12/23 16:48:28;;;;;;;63.20;57.63;;;;;;;11.44;100.00;100766.36;1870508;75;86251;-70
2021/12/23 16:54:15;;;;;;;63.07;57.40;;;;;;;11.47;100.00;100774.11;1908357;72;86461;-72
2021/12/23 16:59:58;;;;;;;59.17;53.60;;;;;;;11.46;100.00;100778.03;1938073;71;39529;-74
2021/12/23 17:05:44;;;;;;;62.10;56.30;;;;;;;11.39;100.00;100770.57;1839976;77;86527;-75
2021/12/23 17:11:27;;;;;;;59.27;53.50;;;;;;;11.47;100.00;100778.28;1906718;74;86946;-74
2021/12/23 17:17:14;;;;;;;58.97;53.77;;;;;;;11.53;100.00;100774.89;1904998;74;86321;-73
2021/12/23 17:22:58;;;;;;;58.40;53.40;;;;;;;11.53;100.00;100774.34;1949552;71;39576;-74
2021/12/23 17:28:43;;;;;;;56.83;52.03;;;;;;;11.62;100.00;100760.62;1830076;76;86154;-75
2021/12/23 17:34:28;;;;;;;57.67;52.67;;;;;;;11.63;100.00;100760.34;1894914;73;85267;-71
2021/12/23 17:40:13;;;;;;;56.73;52.37;;;;;;;11.70;100.00;100760.80;1901469;72;86066;-72
2021/12/23 17:45:59;;;;;;;55.50;51.17;;;;;;;11.68;100.00;100765.02;1942420;71;39865;-73
2021/12/23 17:51:43;;;;;;;53.97;49.77;;;;;;;11.65;100.00;100782.28;1838272;76;86253;-75
2021/12/23 17:57:29;;;;;;;52.43;48.13;;;;;;;11.67;100.00;100771.70;1884208;74;86347;-72
2021/12/23 18:03:13;;;;;;;52.30;48.30;;;;;;;11.85;100.00;100773.17;1890396;72;86555;-76
2021/12/23 18:08:58;;;;;;;51.63;47.63;;;;;;;11.80;100.00;100777.98;1951024;71;39797;-77
2021/12/23 18:14:43;;;;;;;49.60;45.73;;;;;;;11.89;100.00;100785.96;1905317;74;86349;-77
2021/12/23 18:20:29;;;;;;;51.43;47.50;;;;;;;11.88;100.00;100787.08;1904782;74;86593;-76
2021/12/23 18:26:14;;;;;;;50.87;47.20;;;;;;;11.88;100.00;100793.20;1910873;74;86263;-79
2021/12/23 18:31:57;;;;;;;51.27;46.97;;;;;;;11.82;100.00;100789.08;1980554;71;39639;-80
2021/12/23 18:37:46;;;;;;;50.87;47.07;;;;;;;11.92;100.00;100786.75;1814138;78;86527;-80
2021/12/23 18:46:45;;;;;;;56.23;51.47;;;;;;;11.78;100.00;100789.41;1812045;78;86297;-76
2021/12/23 18:52:33;;;;;;;52.23;48.37;;;;;;;11.73;100.00;100788.62;1946667;73;86526;-76
2021/12/23 18:58:18;;;;;;;52.50;48.70;;;;;;;11.71;100.00;100795.02;1900596;73;85538;-76
2021/12/23 19:04:42;;;;;;;49.87;46.07;;;;;;;11.57;100.00;100797.66;1904291;72;86150;-76
2021/12/23 19:09:58;;;;;;;50.20;46.43;;;;;;;11.49;100.00;100802.47;1980833;71;39634;-76
2021/12/23 19:15:42;;;;;;;51.50;47.40;;;;;;;11.36;100.00;100819.27;1833208;76;86351;-77
2021/12/23 19:21:26;;;;;;;49.80;45.90;;;;;;;11.32;100.00;100818.20;1900712;73;86575;-78
2021/12/23 19:27:11;;;;;;;49.83;45.67;;;;;;;11.21;100.00;100819.38;1904409;74;86895;-77
2021/12/23 19:32:55;;;;;;;50.77;46.97;;;;;;;11.24;100.00;100827.17;1932307;71;39560;-73
2021/12/23 19:38:39;;;;;;;49.07;45.33;;;;;;;11.08;100.00;100821.43;1838671;76;86636;-78
2021/12/23 19:44:26;;;;;;;52.63;48.63;;;;;;;11.06;100.00;100818.12;1883200;74;86220;-76
2021/12/23 19:50:13;;;;;;;49.70;45.70;;;;;;;11.12;100.00;100820.31;1916302;72;86178;-78
2021/12/23 19:55:57;;;;;;;51.17;47.07;;;;;;;11.05;100.00;100830.36;1981400;70;39679;-75
2021/12/23 20:01:42;;;;;;;51.60;47.53;;;;;;;11.00;100.00;100839.28;1836164;76;86581;-77
2021/12/23 20:07:26;;;;;;;64.17;58.67;;;;;;;10.89;100.00;100844.09;1872263;75;86372;-76
2021/12/23 20:13:12;;;;;;;54.00;49.43;;;;;;;10.79;100.00;100851.92;1915464;72;86127;-75
2021/12/23 20:18:57;;;;;;;48.50;44.50;;;;;;;10.75;100.00;100855.00;1921062;71;39606;-75
2021/12/23 20:24:41;;;;;;;51.70;47.43;;;;;;;10.68;100.00;100852.27;1828236;76;86161;-78
2021/12/23 20:30:29;;;;;;;50.37;46.17;;;;;;;10.66;100.00;100863.66;1883522;74;86547;-74
2021/12/23 20:36:14;;;;;;;47.97;43.87;;;;;;;10.59;100.00;100868.70;1927716;73;86803;-76
2021/12/23 20:41:58;;;;;;;49.80;45.40;;;;;;;10.54;100.00;100868.72;1974486;71;39679;-77
2021/12/23 20:47:44;;;;;;;47.87;43.40;;;;;;;10.58;100.00;100878.14;1841465;76;85678;-76
2021/12/23 20:53:36;;;;;;;47.60;43.37;;;;;;;10.52;100.00;100879.30;1806626;78;85438;-77
2021/12/23 20:59:17;;;;;;;50.53;46.07;;;;;;;10.43;100.00;100883.22;1901001;72;86297;-78
2021/12/23 21:05:05;;;;;;;51.83;47.83;;;;;;;10.43;100.00;100881.83;1869147;75;86137;-75
2021/12/23 21:10:50;;;;;;;51.90;47.67;;;;;;;10.36;100.00;100872.95;1976925;71;39542;-78
2021/12/23 21:16:35;;;;;;;52.80;49.17;;;;;;;10.32;100.00;100880.74;1840868;76;85122;-76
2021/12/23 21:22:19;;;;;;;52.30;48.13;;;;;;;10.28;100.00;100885.20;1897772;73;86864;-78
2021/12/23 21:28:07;;;;;;;51.87;47.13;;;;;;;10.21;100.00;100893.00;1910128;72;86643;-81
2021/12/23 21:33:51;;;;;;;48.83;44.70;;;;;;;10.08;100.00;100893.00;1985361;71;39639;-72
2021/12/23 21:39:35;;;;;;;52.67;48.43;;;;;;;10.13;100.00;100890.77;1834021;76;85410;-75
2021/12/23 21:45:21;;;;;;;54.57;50.23;;;;;;;10.09;100.00;100900.23;1870827;76;86376;-73
2021/12/23 21:54:15;;;;;;;55.10;50.80;;;;;;;10.09;100.00;100895.23;1928742;73;86380;-73
2021/12/23 21:56:47;;;;;;;55.28;50.60;;;;;;;10.01;100.00;100896.64;1890863;74;938764;-75
2021/12/23 21:59:20;;;;;;;52.50;48.43;;;;;;;9.96;100.00;100902.19;1902174;73;940845;-72
2021/12/23 22:01:50;;;;;;;55.05;50.43;;;;;;;9.84;100.00;100903.84;1888975;74;938600;-70
2021/12/23 22:07:36;;;;;;;54.40;50.30;;;;;;;9.89;100.00;100903.02;1829051;76;86242;-73
2021/12/23 22:13:20;;;;;;;54.40;50.07;;;;;;;9.89;100.00;100899.69;1891837;73;85804;-77
2021/12/23 22:19:04;;;;;;;53.97;49.47;;;;;;;9.86;100.00;100895.26;1902379;72;86658;-77
2021/12/23 22:24:48;;;;;;;56.80;52.53;;;;;;;9.66;100.00;100889.19;1985083;71;39708;-75
2021/12/23 22:30:33;;;;;;;56.17;51.53;;;;;;;9.66;100.00;100898.05;1886085;74;86668;-75
2021/12/23 22:36:18;;;;;;;66.80;61.47;;;;;;;9.45;100.00;100894.45;1876891;75;86326;-72
2021/12/23 22:42:03;;;;;;;52.07;47.70;;;;;;;9.36;100.00;100893.34;1906318;72;86569;-73
2021/12/23 22:47:47;;;;;;;51.93;47.23;;;;;;;9.15;100.00;100893.88;1984612;71;39666;-70
2021/12/23 22:53:32;;;;;;;52.00;47.50;;;;;;;9.12;100.00;100892.47;1878095;74;86234;-77
2021/12/23 22:59:17;;;;;;;53.93;49.37;;;;;;;8.91;100.00;100892.14;1917910;72;86272;-71
2021/12/23 23:05:01;;;;;;;53.03;48.73;;;;;;;8.82;100.00;100890.17;1930028;73;86217;-78
2021/12/23 23:10:55;;;;;;;53.43;49.17;;;;;;;8.81;100.00;100887.15;1796500;78;86595;-72
2021/12/23 23:16:45;;;;;;;51.53;47.53;;;;;;;8.93;100.00;100882.19;1895080;74;86780;-72
2021/12/23 23:22:30;;;;;;;50.27;46.27;;;;;;;9.06;100.00;100883.89;1800518;78;86492;-71
2021/12/23 23:35:16;;;;;;;50.77;46.97;;;;;;;8.66;100.00;100883.22;1939078;73;86129;-76
2021/12/23 23:40:14;;;;;;;59.50;55.57;;;;;;;8.80;100.00;100873.84;1912633;73;86298;-75
2021/12/23 23:46:08;;;;;;;54.60;50.40;;;;;;;8.80;100.00;100879.94;1983502;71;39720;-83
2021/12/23 23:51:51;;;;;;;58.17;53.80;;;;;;;8.49;100.00;100883.15;1965007;71;39598;-77
2021/12/23 23:57:33;;;;;;;55.70;51.63;;;;;;;8.51;100.00;100879.57;1895343;74;86609;-75
